sensor_id;sensor_type;location;lat;lon;timestamp;P1;durP1;ratioP1;P2;durP2;ratioP2
5493;SDS011;2769;49.864;8.656;2023-04-03T00:00:40;5.07;;;3.40;;
5493;SDS011;2769;49.864;8.656;2023-04-03T00:03:08;3.63;;;3.33;;
5493;SDS011;2769;49.864;8.656;2023-04-03T00:05:36;3.63;;;2.73;;
5493;SDS011;2769;49.864;8.656;2023-04-03T00:08:05;2.57;;;2.37;;
5493;SDS011;2769;49.864;8.656;2023-04-03T00:10:34;3.13;;;2.93;;
5493;SDS011;2769;49.864;8.656;2023-04-03T00:13:03;3.00;;;2.80;;
5493;SDS011;2769;49.864;8.656;2023-04-03T00:15:31;3.23;;;2.93;;
5493;SDS011;2769;49.864;8.656;2023-04-03T00:17:59;7.63;;;2.90;;
5493;SDS011;2769;49.864;8.656;2023-04-03T00:20:28;3.00;;;2.80;;
5493;SDS011;2769;49.864;8.656;2023-04-03T00:22:56;2.60;;;2.40;;
5493;SDS011;2769;49.864;8.656;2023-04-03T00:25:25;2.50;;;2.40;;
5493;SDS011;2769;49.864;8.656;2023-04-03T00:27:53;2.63;;;2.43;;
5493;SDS011;2769;49.864;8.656;2023-04-03T00:30:22;2.83;;;2.63;;
5493;SDS011;2769;49.864;8.656;2023-04-03T00:32:50;3.00;;;2.80;;
5493;SDS011;2769;49.864;8.656;2023-04-03T00:35:19;2.80;;;2.60;;
5493;SDS011;2769;49.864;8.656;2023-04-03T00:37:50;2.70;;;2.60;;
5493;SDS011;2769;49.864;8.656;2023-04-03T00:40:19;3.10;;;2.50;;
5493;SDS011;2769;49.864;8.656;2023-04-03T00:42:51;3.23;;;3.03;;
5493;SDS011;2769;49.864;8.656;2023-04-03T00:45:28;3.70;;;2.80;;
5493;SDS011;2769;49.864;8.656;2023-04-03T00:48:01;4.20;;;2.90;;
5493;SDS011;2769;49.864;8.656;2023-04-03T00:50:32;2.93;;;2.70;;
5493;SDS011;2769;49.864;8.656;2023-04-03T00:53:03;3.70;;;2.70;;
5493;SDS011;2769;49.864;8.656;2023-04-03T00:55:31;2.67;;;2.47;;
5493;SDS011;2769;49.864;8.656;2023-04-03T00:58:01;3.17;;;2.90;;
5493;SDS011;2769;49.864;8.656;2023-04-03T01:00:30;3.10;;;2.80;;
5493;SDS011;2769;49.864;8.656;2023-04-03T01:02:58;2.73;;;2.53;;
5493;SDS011;2769;49.864;8.656;2023-04-03T01:05:27;3.00;;;2.80;;
5493;SDS011;2769;49.864;8.656;2023-04-03T01:07:55;4.00;;;3.03;;
5493;SDS011;2769;49.864;8.656;2023-04-03T01:10:24;3.10;;;2.70;;
5493;SDS011;2769;49.864;8.656;2023-04-03T01:12:52;5.13;;;2.50;;
5493;SDS011;2769;49.864;8.656;2023-04-03T01:15:22;4.90;;;2.90;;
5493;SDS011;2769;49.864;8.656;2023-04-03T01:17:53;2.87;;;2.73;;
5493;SDS011;2769;49.864;8.656;2023-04-03T01:23:47;7.10;;;3.10;;
5493;SDS011;2769;49.864;8.656;2023-04-03T01:26:22;3.20;;;3.00;;
5493;SDS011;2769;49.864;8.656;2023-04-03T01:28:49;6.70;;;3.10;;
5493;SDS011;2769;49.864;8.656;2023-04-03T01:31:20;3.57;;;3.27;;
5493;SDS011;2769;49.864;8.656;2023-04-03T01:33:53;3.63;;;3.23;;
5493;SDS011;2769;49.864;8.656;2023-04-03T01:36:23;3.77;;;3.47;;
5493;SDS011;2769;49.864;8.656;2023-04-03T01:38:53;3.83;;;3.40;;
5493;SDS011;2769;49.864;8.656;2023-04-03T01:41:22;3.00;;;2.90;;
5493;SDS011;2769;49.864;8.656;2023-04-03T01:43:53;3.10;;;2.90;;
5493;SDS011;2769;49.864;8.656;2023-04-03T01:46:21;5.23;;;3.10;;
5493;SDS011;2769;49.864;8.656;2023-04-03T01:48:49;7.10;;;2.80;;
5493;SDS011;2769;49.864;8.656;2023-04-03T01:51:19;3.90;;;3.20;;
5493;SDS011;2769;49.864;8.656;2023-04-03T01:53:47;3.30;;;3.03;;
5493;SDS011;2769;49.864;8.656;2023-04-03T01:56:15;3.47;;;3.17;;
5493;SDS011;2769;49.864;8.656;2023-04-03T01:58:43;7.00;;;5.03;;
5493;SDS011;2769;49.864;8.656;2023-04-03T02:01:11;3.00;;;2.80;;
5493;SDS011;2769;49.864;8.656;2023-04-03T02:03:39;4.23;;;3.30;;
5493;SDS011;2769;49.864;8.656;2023-04-03T02:06:07;3.73;;;3.33;;
5493;SDS011;2769;49.864;8.656;2023-04-03T02:08:39;3.40;;;3.13;;
5493;SDS011;2769;49.864;8.656;2023-04-03T02:11:08;3.50;;;3.23;;
5493;SDS011;2769;49.864;8.656;2023-04-03T02:13:35;3.67;;;3.10;;
5493;SDS011;2769;49.864;8.656;2023-04-03T02:16:07;7.30;;;3.43;;
5493;SDS011;2769;49.864;8.656;2023-04-03T02:18:36;4.57;;;3.10;;
5493;SDS011;2769;49.864;8.656;2023-04-03T02:21:04;3.00;;;2.90;;
5493;SDS011;2769;49.864;8.656;2023-04-03T02:23:33;2.60;;;2.40;;
5493;SDS011;2769;49.864;8.656;2023-04-03T02:26:04;3.63;;;3.10;;
5493;SDS011;2769;49.864;8.656;2023-04-03T02:28:34;3.50;;;2.70;;
5493;SDS011;2769;49.864;8.656;2023-04-03T02:31:02;3.10;;;2.90;;
5493;SDS011;2769;49.864;8.656;2023-04-03T02:33:31;6.17;;;3.60;;
5493;SDS011;2769;49.864;8.656;2023-04-03T02:35:59;2.70;;;2.60;;
5493;SDS011;2769;49.864;8.656;2023-04-03T02:38:28;3.50;;;3.00;;
5493;SDS011;2769;49.864;8.656;2023-04-03T02:40:59;3.27;;;2.80;;
5493;SDS011;2769;49.864;8.656;2023-04-03T02:43:29;3.20;;;2.70;;
5493;SDS011;2769;49.864;8.656;2023-04-03T02:45:57;2.90;;;2.70;;
5493;SDS011;2769;49.864;8.656;2023-04-03T02:48:25;2.77;;;2.53;;
5493;SDS011;2769;49.864;8.656;2023-04-03T02:50:54;3.00;;;2.80;;
5493;SDS011;2769;49.864;8.656;2023-04-03T02:53:22;3.47;;;2.73;;
5493;SDS011;2769;49.864;8.656;2023-04-03T02:55:50;3.03;;;2.80;;
5493;SDS011;2769;49.864;8.656;2023-04-03T02:58:19;2.80;;;2.60;;
5493;SDS011;2769;49.864;8.656;2023-04-03T03:00:49;3.07;;;2.77;;
5493;SDS011;2769;49.864;8.656;2023-04-03T03:03:17;3.43;;;2.67;;
5493;SDS011;2769;49.864;8.656;2023-04-03T03:05:44;3.33;;;3.00;;
5493;SDS011;2769;49.864;8.656;2023-04-03T03:08:14;2.60;;;2.50;;
5493;SDS011;2769;49.864;8.656;2023-04-03T03:10:42;3.00;;;2.70;;
5493;SDS011;2769;49.864;8.656;2023-04-03T03:13:12;3.20;;;2.90;;
5493;SDS011;2769;49.864;8.656;2023-04-03T03:15:40;2.97;;;2.60;;
5493;SDS011;2769;49.864;8.656;2023-04-03T03:18:09;3.03;;;2.73;;
5493;SDS011;2769;49.864;8.656;2023-04-03T03:20:37;2.80;;;2.60;;
5493;SDS011;2769;49.864;8.656;2023-04-03T03:23:05;3.70;;;2.43;;
5493;SDS011;2769;49.864;8.656;2023-04-03T03:25:33;2.67;;;2.50;;
5493;SDS011;2769;49.864;8.656;2023-04-03T03:28:06;5.10;;;3.00;;
5493;SDS011;2769;49.864;8.656;2023-04-03T03:30:34;3.83;;;2.60;;
5493;SDS011;2769;49.864;8.656;2023-04-03T03:33:03;3.53;;;2.43;;
5493;SDS011;2769;49.864;8.656;2023-04-03T03:35:32;8.37;;;2.50;;
5493;SDS011;2769;49.864;8.656;2023-04-03T03:38:01;3.37;;;2.73;;
5493;SDS011;2769;49.864;8.656;2023-04-03T03:40:31;3.43;;;2.87;;
5493;SDS011;2769;49.864;8.656;2023-04-03T03:42:59;4.80;;;2.90;;
5493;SDS011;2769;49.864;8.656;2023-04-03T03:45:27;4.90;;;3.60;;
5493;SDS011;2769;49.864;8.656;2023-04-03T03:47:56;4.60;;;3.70;;
5493;SDS011;2769;49.864;8.656;2023-04-03T03:50:24;7.40;;;4.60;;
5493;SDS011;2769;49.864;8.656;2023-04-03T03:52:53;15.00;;;5.50;;
5493;SDS011;2769;49.864;8.656;2023-04-03T03:55:21;12.37;;;6.30;;
5493;SDS011;2769;49.864;8.656;2023-04-03T03:57:53;16.57;;;7.80;;
5493;SDS011;2769;49.864;8.656;2023-04-03T04:00:21;19.60;;;8.27;;
5493;SDS011;2769;49.864;8.656;2023-04-03T04:02:53;18.50;;;7.53;;
5493;SDS011;2769;49.864;8.656;2023-04-03T04:05:25;19.30;;;7.87;;
5493;SDS011;2769;49.864;8.656;2023-04-03T04:07:55;19.10;;;7.43;;
5493;SDS011;2769;49.864;8.656;2023-04-03T04:10:24;14.83;;;6.20;;
5493;SDS011;2769;49.864;8.656;2023-04-03T04:12:53;14.73;;;6.17;;
5493;SDS011;2769;49.864;8.656;2023-04-03T04:15:25;8.60;;;5.40;;
5493;SDS011;2769;49.864;8.656;2023-04-03T04:17:55;10.47;;;5.17;;
5493;SDS011;2769;49.864;8.656;2023-04-03T04:20:24;14.23;;;5.00;;
5493;SDS011;2769;49.864;8.656;2023-04-03T04:22:52;11.10;;;4.47;;
5493;SDS011;2769;49.864;8.656;2023-04-03T04:25:23;7.13;;;3.60;;
5493;SDS011;2769;49.864;8.656;2023-04-03T04:27:51;16.03;;;3.70;;
5493;SDS011;2769;49.864;8.656;2023-04-03T04:30:19;4.70;;;3.50;;
5493;SDS011;2769;49.864;8.656;2023-04-03T04:32:51;6.13;;;3.60;;
5493;SDS011;2769;49.864;8.656;2023-04-03T04:35:20;5.00;;;2.90;;
5493;SDS011;2769;49.864;8.656;2023-04-03T04:37:50;4.63;;;3.10;;
5493;SDS011;2769;49.864;8.656;2023-04-03T04:40:17;5.27;;;2.70;;
5493;SDS011;2769;49.864;8.656;2023-04-03T04:42:47;4.63;;;2.80;;
5493;SDS011;2769;49.864;8.656;2023-04-03T04:45:15;3.83;;;2.70;;
5493;SDS011;2769;49.864;8.656;2023-04-03T04:47:45;2.77;;;2.43;;
5493;SDS011;2769;49.864;8.656;2023-04-03T04:50:14;6.67;;;2.40;;
5493;SDS011;2769;49.864;8.656;2023-04-03T04:52:43;6.03;;;2.70;;
5493;SDS011;2769;49.864;8.656;2023-04-03T04:55:11;6.10;;;2.60;;
5493;SDS011;2769;49.864;8.656;2023-04-03T04:57:39;2.53;;;2.23;;
5493;SDS011;2769;49.864;8.656;2023-04-03T05:00:12;7.20;;;2.53;;
5493;SDS011;2769;49.864;8.656;2023-04-03T05:02:41;5.87;;;2.10;;
5493;SDS011;2769;49.864;8.656;2023-04-03T05:05:10;3.60;;;2.20;;
5493;SDS011;2769;49.864;8.656;2023-04-03T05:07:38;3.03;;;2.27;;
5493;SDS011;2769;49.864;8.656;2023-04-03T05:10:07;4.17;;;2.33;;
5493;SDS011;2769;49.864;8.656;2023-04-03T05:12:37;2.20;;;2.00;;
5493;SDS011;2769;49.864;8.656;2023-04-03T05:15:05;3.73;;;2.20;;
5493;SDS011;2769;49.864;8.656;2023-04-03T05:17:36;4.57;;;2.30;;
5493;SDS011;2769;49.864;8.656;2023-04-03T05:20:06;3.53;;;2.20;;
5493;SDS011;2769;49.864;8.656;2023-04-03T05:22:35;4.50;;;2.00;;
5493;SDS011;2769;49.864;8.656;2023-04-03T05:25:06;4.23;;;2.43;;
5493;SDS011;2769;49.864;8.656;2023-04-03T05:27:36;3.13;;;2.27;;
5493;SDS011;2769;49.864;8.656;2023-04-03T05:30:04;5.57;;;2.07;;
5493;SDS011;2769;49.864;8.656;2023-04-03T05:32:36;3.83;;;1.80;;
5493;SDS011;2769;49.864;8.656;2023-04-03T05:35:35;4.17;;;2.17;;
5493;SDS011;2769;49.864;8.656;2023-04-03T05:38:07;2.10;;;2.00;;
5493;SDS011;2769;49.864;8.656;2023-04-03T05:40:35;5.00;;;1.97;;
5493;SDS011;2769;49.864;8.656;2023-04-03T05:43:05;7.83;;;1.80;;
5493;SDS011;2769;49.864;8.656;2023-04-03T05:45:36;4.13;;;2.13;;
5493;SDS011;2769;49.864;8.656;2023-04-03T05:48:06;3.10;;;1.90;;
5493;SDS011;2769;49.864;8.656;2023-04-03T05:50:34;4.90;;;2.07;;
5493;SDS011;2769;49.864;8.656;2023-04-03T05:53:11;5.17;;;1.80;;
5493;SDS011;2769;49.864;8.656;2023-04-03T05:55:43;2.40;;;2.03;;
5493;SDS011;2769;49.864;8.656;2023-04-03T05:58:12;4.50;;;2.17;;
5493;SDS011;2769;49.864;8.656;2023-04-03T06:00:42;3.60;;;1.97;;
5493;SDS011;2769;49.864;8.656;2023-04-03T06:03:15;3.30;;;1.97;;
5493;SDS011;2769;49.864;8.656;2023-04-03T06:05:43;2.57;;;2.00;;
5493;SDS011;2769;49.864;8.656;2023-04-03T06:08:12;6.37;;;2.23;;
5493;SDS011;2769;49.864;8.656;2023-04-03T06:10:41;2.60;;;2.07;;
5493;SDS011;2769;49.864;8.656;2023-04-03T06:13:08;5.10;;;2.00;;
5493;SDS011;2769;49.864;8.656;2023-04-03T06:15:36;1.93;;;1.77;;
5493;SDS011;2769;49.864;8.656;2023-04-03T06:18:08;3.97;;;2.30;;
5493;SDS011;2769;49.864;8.656;2023-04-03T06:20:37;1.63;;;1.50;;
5493;SDS011;2769;49.864;8.656;2023-04-03T06:23:05;3.63;;;2.20;;
5493;SDS011;2769;49.864;8.656;2023-04-03T06:25:34;5.27;;;1.83;;
5493;SDS011;2769;49.864;8.656;2023-04-03T06:28:02;3.70;;;2.03;;
5493;SDS011;2769;49.864;8.656;2023-04-03T06:30:29;3.70;;;1.90;;
5493;SDS011;2769;49.864;8.656;2023-04-03T06:32:57;3.83;;;2.23;;
5493;SDS011;2769;49.864;8.656;2023-04-03T06:35:25;5.30;;;2.17;;
5493;SDS011;2769;49.864;8.656;2023-04-03T06:37:56;2.27;;;1.87;;
5493;SDS011;2769;49.864;8.656;2023-04-03T06:40:24;4.70;;;2.43;;
5493;SDS011;2769;49.864;8.656;2023-04-03T06:42:53;3.70;;;2.20;;
5493;SDS011;2769;49.864;8.656;2023-04-03T06:45:21;8.13;;;2.07;;
5493;SDS011;2769;49.864;8.656;2023-04-03T06:47:49;3.03;;;2.10;;
5493;SDS011;2769;49.864;8.656;2023-04-03T06:50:16;4.50;;;2.07;;
5493;SDS011;2769;49.864;8.656;2023-04-03T06:52:44;2.00;;;1.80;;
5493;SDS011;2769;49.864;8.656;2023-04-03T06:55:14;4.07;;;2.03;;
5493;SDS011;2769;49.864;8.656;2023-04-03T06:57:43;6.87;;;2.53;;
5493;SDS011;2769;49.864;8.656;2023-04-03T07:00:12;4.27;;;2.10;;
5493;SDS011;2769;49.864;8.656;2023-04-03T07:02:41;5.63;;;2.17;;
5493;SDS011;2769;49.864;8.656;2023-04-03T07:05:09;2.43;;;1.90;;
5493;SDS011;2769;49.864;8.656;2023-04-03T07:07:37;2.70;;;2.10;;
5493;SDS011;2769;49.864;8.656;2023-04-03T07:10:06;8.30;;;2.63;;
5493;SDS011;2769;49.864;8.656;2023-04-03T07:12:36;3.20;;;2.03;;
5493;SDS011;2769;49.864;8.656;2023-04-03T07:15:05;4.07;;;2.73;;
5493;SDS011;2769;49.864;8.656;2023-04-03T07:17:34;8.33;;;2.50;;
5493;SDS011;2769;49.864;8.656;2023-04-03T07:20:03;2.17;;;1.90;;
5493;SDS011;2769;49.864;8.656;2023-04-03T07:22:31;3.60;;;2.23;;
5493;SDS011;2769;49.864;8.656;2023-04-03T07:24:59;4.53;;;2.07;;
5493;SDS011;2769;49.864;8.656;2023-04-03T07:27:27;4.37;;;2.00;;
5493;SDS011;2769;49.864;8.656;2023-04-03T07:29:56;5.77;;;2.10;;
5493;SDS011;2769;49.864;8.656;2023-04-03T07:32:24;2.97;;;1.97;;
5493;SDS011;2769;49.864;8.656;2023-04-03T07:34:52;1.50;;;1.40;;
5493;SDS011;2769;49.864;8.656;2023-04-03T07:37:20;7.03;;;2.17;;
5493;SDS011;2769;49.864;8.656;2023-04-03T07:39:48;3.63;;;1.70;;
5493;SDS011;2769;49.864;8.656;2023-04-03T07:42:17;2.70;;;1.50;;
5493;SDS011;2769;49.864;8.656;2023-04-03T07:44:45;4.07;;;2.33;;
5493;SDS011;2769;49.864;8.656;2023-04-03T07:47:15;4.20;;;1.90;;
5493;SDS011;2769;49.864;8.656;2023-04-03T07:49:44;2.67;;;1.77;;
5493;SDS011;2769;49.864;8.656;2023-04-03T07:52:12;4.23;;;2.03;;
5493;SDS011;2769;49.864;8.656;2023-04-03T07:54:41;3.30;;;2.10;;
5493;SDS011;2769;49.864;8.656;2023-04-03T07:57:09;2.10;;;1.63;;
5493;SDS011;2769;49.864;8.656;2023-04-03T07:59:37;2.60;;;2.40;;
5493;SDS011;2769;49.864;8.656;2023-04-03T08:02:07;3.03;;;1.97;;
5493;SDS011;2769;49.864;8.656;2023-04-03T08:04:38;4.73;;;2.43;;
5493;SDS011;2769;49.864;8.656;2023-04-03T08:07:06;2.53;;;2.33;;
5493;SDS011;2769;49.864;8.656;2023-04-03T08:09:34;2.33;;;1.93;;
5493;SDS011;2769;49.864;8.656;2023-04-03T08:12:02;3.50;;;2.00;;
5493;SDS011;2769;49.864;8.656;2023-04-03T08:14:30;2.17;;;1.93;;
5493;SDS011;2769;49.864;8.656;2023-04-03T08:17:00;2.47;;;2.27;;
5493;SDS011;2769;49.864;8.656;2023-04-03T08:19:30;4.80;;;1.90;;
5493;SDS011;2769;49.864;8.656;2023-04-03T08:22:00;8.10;;;1.97;;
5493;SDS011;2769;49.864;8.656;2023-04-03T08:24:29;5.17;;;1.90;;
5493;SDS011;2769;49.864;8.656;2023-04-03T08:26:58;2.33;;;2.13;;
5493;SDS011;2769;49.864;8.656;2023-04-03T08:29:26;1.73;;;1.63;;
5493;SDS011;2769;49.864;8.656;2023-04-03T08:31:54;2.60;;;2.00;;
5493;SDS011;2769;49.864;8.656;2023-04-03T08:34:22;6.77;;;2.30;;
5493;SDS011;2769;49.864;8.656;2023-04-03T08:36:50;5.53;;;2.10;;
5493;SDS011;2769;49.864;8.656;2023-04-03T08:39:19;6.63;;;1.87;;
5493;SDS011;2769;49.864;8.656;2023-04-03T08:41:47;3.23;;;2.17;;
5493;SDS011;2769;49.864;8.656;2023-04-03T08:44:17;2.53;;;1.80;;
5493;SDS011;2769;49.864;8.656;2023-04-03T08:46:54;3.90;;;2.20;;
5493;SDS011;2769;49.864;8.656;2023-04-03T08:49:28;1.97;;;1.67;;
5493;SDS011;2769;49.864;8.656;2023-04-03T08:51:58;3.27;;;1.83;;
5493;SDS011;2769;49.864;8.656;2023-04-03T08:54:29;2.90;;;2.23;;
5493;SDS011;2769;49.864;8.656;2023-04-03T08:57:01;3.57;;;2.33;;
5493;SDS011;2769;49.864;8.656;2023-04-03T08:59:32;2.67;;;1.70;;
5493;SDS011;2769;49.864;8.656;2023-04-03T09:02:04;5.20;;;2.17;;
5493;SDS011;2769;49.864;8.656;2023-04-03T09:04:46;2.80;;;1.87;;
5493;SDS011;2769;49.864;8.656;2023-04-03T09:07:16;2.57;;;1.80;;
5493;SDS011;2769;49.864;8.656;2023-04-03T09:09:48;4.10;;;1.80;;
5493;SDS011;2769;49.864;8.656;2023-04-03T09:12:18;2.30;;;2.10;;
5493;SDS011;2769;49.864;8.656;2023-04-03T09:14:53;1.93;;;1.60;;
5493;SDS011;2769;49.864;8.656;2023-04-03T09:17:30;4.57;;;1.60;;
5493;SDS011;2769;49.864;8.656;2023-04-03T09:20:09;2.43;;;1.50;;
5493;SDS011;2769;49.864;8.656;2023-04-03T09:22:45;2.27;;;2.07;;
5493;SDS011;2769;49.864;8.656;2023-04-03T09:25:20;2.83;;;1.80;;
5493;SDS011;2769;49.864;8.656;2023-04-03T09:27:49;2.30;;;1.63;;
5493;SDS011;2769;49.864;8.656;2023-04-03T09:30:19;2.27;;;1.83;;
5493;SDS011;2769;49.864;8.656;2023-04-03T09:32:48;4.53;;;1.83;;
5493;SDS011;2769;49.864;8.656;2023-04-03T09:35:19;5.33;;;2.23;;
5493;SDS011;2769;49.864;8.656;2023-04-03T09:38:15;3.47;;;1.80;;
5493;SDS011;2769;49.864;8.656;2023-04-03T09:40:46;2.87;;;1.60;;
5493;SDS011;2769;49.864;8.656;2023-04-03T09:43:23;4.37;;;2.07;;
5493;SDS011;2769;49.864;8.656;2023-04-03T09:45:53;1.60;;;1.50;;
5493;SDS011;2769;49.864;8.656;2023-04-03T09:48:22;1.60;;;1.60;;
5493;SDS011;2769;49.864;8.656;2023-04-03T09:50:53;1.60;;;1.50;;
5493;SDS011;2769;49.864;8.656;2023-04-03T09:53:26;4.60;;;1.70;;
5493;SDS011;2769;49.864;8.656;2023-04-03T09:56:05;4.30;;;1.43;;
5493;SDS011;2769;49.864;8.656;2023-04-03T09:58:48;1.70;;;1.60;;
5493;SDS011;2769;49.864;8.656;2023-04-03T10:01:22;2.97;;;1.70;;
5493;SDS011;2769;49.864;8.656;2023-04-03T10:04:03;4.43;;;1.93;;
5493;SDS011;2769;49.864;8.656;2023-04-03T10:06:33;1.90;;;1.80;;
5493;SDS011;2769;49.864;8.656;2023-04-03T10:09:03;4.83;;;1.60;;
5493;SDS011;2769;49.864;8.656;2023-04-03T10:11:34;2.83;;;1.47;;
5493;SDS011;2769;49.864;8.656;2023-04-03T10:14:02;2.73;;;1.70;;
5493;SDS011;2769;49.864;8.656;2023-04-03T10:16:35;2.47;;;1.57;;
5493;SDS011;2769;49.864;8.656;2023-04-03T10:19:12;2.07;;;1.67;;
5493;SDS011;2769;49.864;8.656;2023-04-03T10:21:52;4.23;;;1.93;;
5493;SDS011;2769;49.864;8.656;2023-04-03T10:24:23;1.60;;;1.47;;
5493;SDS011;2769;49.864;8.656;2023-04-03T10:26:57;3.83;;;2.40;;
5493;SDS011;2769;49.864;8.656;2023-04-03T10:32:22;1.73;;;1.40;;
5493;SDS011;2769;49.864;8.656;2023-04-03T10:34:57;2.40;;;1.90;;
5493;SDS011;2769;49.864;8.656;2023-04-03T10:37:34;4.20;;;1.40;;
5493;SDS011;2769;49.864;8.656;2023-04-03T10:40:12;2.60;;;1.50;;
5493;SDS011;2769;49.864;8.656;2023-04-03T10:42:50;2.10;;;1.73;;
5493;SDS011;2769;49.864;8.656;2023-04-03T10:45:22;2.60;;;1.80;;
5493;SDS011;2769;49.864;8.656;2023-04-03T10:47:56;1.93;;;1.60;;
5493;SDS011;2769;49.864;8.656;2023-04-03T10:50:30;3.40;;;2.00;;
5493;SDS011;2769;49.864;8.656;2023-04-03T10:53:07;4.30;;;1.60;;
5493;SDS011;2769;49.864;8.656;2023-04-03T10:55:43;2.40;;;2.20;;
5493;SDS011;2769;49.864;8.656;2023-04-03T10:58:18;1.47;;;1.40;;
5493;SDS011;2769;49.864;8.656;2023-04-03T11:00:49;4.60;;;2.00;;
5493;SDS011;2769;49.864;8.656;2023-04-03T11:03:23;2.00;;;1.50;;
5493;SDS011;2769;49.864;8.656;2023-04-03T11:05:54;2.20;;;1.87;;
5493;SDS011;2769;49.864;8.656;2023-04-03T11:08:24;2.00;;;1.90;;
5493;SDS011;2769;49.864;8.656;2023-04-03T11:10:55;2.27;;;1.70;;
5493;SDS011;2769;49.864;8.656;2023-04-03T11:13:28;2.40;;;1.50;;
5493;SDS011;2769;49.864;8.656;2023-04-03T11:16:04;2.43;;;2.20;;
5493;SDS011;2769;49.864;8.656;2023-04-03T11:18:34;2.30;;;1.60;;
5493;SDS011;2769;49.864;8.656;2023-04-03T11:21:06;1.87;;;1.77;;
5493;SDS011;2769;49.864;8.656;2023-04-03T11:23:36;4.73;;;1.73;;
5493;SDS011;2769;49.864;8.656;2023-04-03T11:26:16;2.67;;;1.70;;
5493;SDS011;2769;49.864;8.656;2023-04-03T11:28:53;2.00;;;1.60;;
5493;SDS011;2769;49.864;8.656;2023-04-03T11:31:25;1.47;;;1.37;;
5493;SDS011;2769;49.864;8.656;2023-04-03T11:34:03;5.10;;;2.10;;
5493;SDS011;2769;49.864;8.656;2023-04-03T11:36:38;2.03;;;1.63;;
5493;SDS011;2769;49.864;8.656;2023-04-03T11:39:10;5.03;;;1.97;;
5493;SDS011;2769;49.864;8.656;2023-04-03T11:41:44;4.00;;;1.87;;
5493;SDS011;2769;49.864;8.656;2023-04-03T11:44:28;4.00;;;1.47;;
5493;SDS011;2769;49.864;8.656;2023-04-03T11:46:59;2.10;;;1.70;;
5493;SDS011;2769;49.864;8.656;2023-04-03T11:58:24;1.40;;;1.40;;
5493;SDS011;2769;49.864;8.656;2023-04-03T12:01:00;1.57;;;1.47;;
5493;SDS011;2769;49.864;8.656;2023-04-03T12:03:30;2.30;;;1.70;;
5493;SDS011;2769;49.864;8.656;2023-04-03T12:09:23;3.70;;;1.80;;
5493;SDS011;2769;49.864;8.656;2023-04-03T12:12:01;5.60;;;1.63;;
5493;SDS011;2769;49.864;8.656;2023-04-03T12:14:53;2.30;;;2.10;;
5493;SDS011;2769;49.864;8.656;2023-04-03T12:17:26;1.80;;;1.70;;
5493;SDS011;2769;49.864;8.656;2023-04-03T12:19:55;3.37;;;1.87;;
5493;SDS011;2769;49.864;8.656;2023-04-03T12:22:23;3.43;;;1.53;;
5493;SDS011;2769;49.864;8.656;2023-04-03T12:24:52;2.80;;;1.50;;
5493;SDS011;2769;49.864;8.656;2023-04-03T12:27:21;1.80;;;1.70;;
5493;SDS011;2769;49.864;8.656;2023-04-03T12:35:49;1.83;;;1.30;;
5493;SDS011;2769;49.864;8.656;2023-04-03T12:38:37;1.67;;;1.47;;
5493;SDS011;2769;49.864;8.656;2023-04-03T12:41:26;2.33;;;1.50;;
5493;SDS011;2769;49.864;8.656;2023-04-03T12:44:06;1.83;;;1.60;;
5493;SDS011;2769;49.864;8.656;2023-04-03T12:46:54;1.60;;;1.50;;
5493;SDS011;2769;49.864;8.656;2023-04-03T12:49:37;1.40;;;1.30;;
5493;SDS011;2769;49.864;8.656;2023-04-03T12:52:13;1.53;;;1.43;;
5493;SDS011;2769;49.864;8.656;2023-04-03T12:54:54;2.00;;;1.30;;
5493;SDS011;2769;49.864;8.656;2023-04-03T12:57:26;1.60;;;1.50;;
5493;SDS011;2769;49.864;8.656;2023-04-03T12:59:55;3.13;;;1.40;;
5493;SDS011;2769;49.864;8.656;2023-04-03T13:02:23;2.27;;;1.40;;
5493;SDS011;2769;49.864;8.656;2023-04-03T13:04:55;3.93;;;1.60;;
5493;SDS011;2769;49.864;8.656;2023-04-03T13:07:27;1.47;;;1.30;;
5493;SDS011;2769;49.864;8.656;2023-04-03T13:09:59;1.50;;;1.40;;
5493;SDS011;2769;49.864;8.656;2023-04-03T13:12:28;1.77;;;1.50;;
5493;SDS011;2769;49.864;8.656;2023-04-03T13:14:58;4.20;;;1.37;;
5493;SDS011;2769;49.864;8.656;2023-04-03T13:17:27;2.17;;;1.40;;
5493;SDS011;2769;49.864;8.656;2023-04-03T13:20:06;1.77;;;1.43;;
5493;SDS011;2769;49.864;8.656;2023-04-03T13:22:38;1.80;;;1.43;;
5493;SDS011;2769;49.864;8.656;2023-04-03T13:25:13;1.40;;;1.30;;
5493;SDS011;2769;49.864;8.656;2023-04-03T13:27:42;2.10;;;1.40;;
5493;SDS011;2769;49.864;8.656;2023-04-03T13:30:21;1.40;;;1.30;;
5493;SDS011;2769;49.864;8.656;2023-04-03T13:32:53;2.43;;;1.50;;
5493;SDS011;2769;49.864;8.656;2023-04-03T13:35:31;1.60;;;1.50;;
5493;SDS011;2769;49.864;8.656;2023-04-03T13:38:02;1.80;;;1.70;;
5493;SDS011;2769;49.864;8.656;2023-04-03T13:40:32;1.43;;;1.33;;
5493;SDS011;2769;49.864;8.656;2023-04-03T13:43:17;1.40;;;1.30;;
5493;SDS011;2769;49.864;8.656;2023-04-03T13:45:54;1.90;;;1.37;;
5493;SDS011;2769;49.864;8.656;2023-04-03T13:48:23;1.67;;;1.60;;
5493;SDS011;2769;49.864;8.656;2023-04-03T13:51:00;1.70;;;1.60;;
5493;SDS011;2769;49.864;8.656;2023-04-03T13:53:30;2.03;;;1.70;;
5493;SDS011;2769;49.864;8.656;2023-04-03T13:56:06;2.60;;;1.63;;
5493;SDS011;2769;49.864;8.656;2023-04-03T13:58:36;1.87;;;1.77;;
5493;SDS011;2769;49.864;8.656;2023-04-03T14:01:10;1.70;;;1.60;;
5493;SDS011;2769;49.864;8.656;2023-04-03T14:03:43;2.10;;;1.43;;
5493;SDS011;2769;49.864;8.656;2023-04-03T14:06:15;2.10;;;1.57;;
5493;SDS011;2769;49.864;8.656;2023-04-03T14:08:43;3.00;;;1.90;;
5493;SDS011;2769;49.864;8.656;2023-04-03T14:11:13;1.67;;;1.57;;
5493;SDS011;2769;49.864;8.656;2023-04-03T14:13:42;3.37;;;2.13;;
5493;SDS011;2769;49.864;8.656;2023-04-03T14:16:12;1.87;;;1.40;;
5493;SDS011;2769;49.864;8.656;2023-04-03T14:18:43;1.93;;;1.50;;
5493;SDS011;2769;49.864;8.656;2023-04-03T14:21:12;2.23;;;2.00;;
5493;SDS011;2769;49.864;8.656;2023-04-03T14:23:42;1.93;;;1.80;;
5493;SDS011;2769;49.864;8.656;2023-04-03T14:26:11;2.07;;;1.70;;
5493;SDS011;2769;49.864;8.656;2023-04-03T14:28:40;1.80;;;1.67;;
5493;SDS011;2769;49.864;8.656;2023-04-03T14:31:11;1.40;;;1.30;;
5493;SDS011;2769;49.864;8.656;2023-04-03T14:33:40;1.20;;;1.20;;
5493;SDS011;2769;49.864;8.656;2023-04-03T14:36:12;1.83;;;1.63;;
5493;SDS011;2769;49.864;8.656;2023-04-03T14:38:43;2.20;;;1.60;;
5493;SDS011;2769;49.864;8.656;2023-04-03T14:41:12;2.00;;;1.73;;
5493;SDS011;2769;49.864;8.656;2023-04-03T14:43:42;4.00;;;1.80;;
5493;SDS011;2769;49.864;8.656;2023-04-03T14:46:12;1.70;;;1.60;;
5493;SDS011;2769;49.864;8.656;2023-04-03T14:48:41;2.00;;;1.90;;
5493;SDS011;2769;49.864;8.656;2023-04-03T14:51:10;2.80;;;1.60;;
5493;SDS011;2769;49.864;8.656;2023-04-03T14:53:39;6.07;;;1.80;;
5493;SDS011;2769;49.864;8.656;2023-04-03T14:56:13;5.67;;;1.80;;
5493;SDS011;2769;49.864;8.656;2023-04-03T14:58:42;3.83;;;2.00;;
5493;SDS011;2769;49.864;8.656;2023-04-03T15:01:10;2.40;;;2.20;;
5493;SDS011;2769;49.864;8.656;2023-04-03T15:03:40;2.43;;;1.77;;
5493;SDS011;2769;49.864;8.656;2023-04-03T15:06:08;3.20;;;1.90;;
5493;SDS011;2769;49.864;8.656;2023-04-03T15:08:37;1.97;;;1.80;;
5493;SDS011;2769;49.864;8.656;2023-04-03T15:11:05;2.50;;;1.90;;
5493;SDS011;2769;49.864;8.656;2023-04-03T15:13:34;2.80;;;2.30;;
5493;SDS011;2769;49.864;8.656;2023-04-03T15:16:02;3.80;;;2.07;;
5493;SDS011;2769;49.864;8.656;2023-04-03T15:18:32;3.23;;;2.60;;
5493;SDS011;2769;49.864;8.656;2023-04-03T15:21:03;2.93;;;2.50;;
5493;SDS011;2769;49.864;8.656;2023-04-03T15:23:32;3.30;;;2.50;;
5493;SDS011;2769;49.864;8.656;2023-04-03T15:26:00;2.27;;;1.80;;
5493;SDS011;2769;49.864;8.656;2023-04-03T15:28:28;1.90;;;1.80;;
5493;SDS011;2769;49.864;8.656;2023-04-03T15:30:59;2.10;;;1.73;;
5493;SDS011;2769;49.864;8.656;2023-04-03T15:33:28;2.40;;;1.93;;
5493;SDS011;2769;49.864;8.656;2023-04-03T15:35:56;2.20;;;1.80;;
5493;SDS011;2769;49.864;8.656;2023-04-03T15:38:32;7.00;;;2.20;;
5493;SDS011;2769;49.864;8.656;2023-04-03T15:41:01;3.30;;;2.03;;
5493;SDS011;2769;49.864;8.656;2023-04-03T15:43:29;2.53;;;2.10;;
5493;SDS011;2769;49.864;8.656;2023-04-03T15:45:58;2.13;;;1.93;;
5493;SDS011;2769;49.864;8.656;2023-04-03T15:48:27;2.27;;;1.97;;
5493;SDS011;2769;49.864;8.656;2023-04-03T15:50:55;2.57;;;1.73;;
5493;SDS011;2769;49.864;8.656;2023-04-03T15:53:24;5.20;;;1.97;;
5493;SDS011;2769;49.864;8.656;2023-04-03T15:55:52;2.80;;;1.60;;
5493;SDS011;2769;49.864;8.656;2023-04-03T15:58:20;4.13;;;1.87;;
5493;SDS011;2769;49.864;8.656;2023-04-03T16:00:48;2.20;;;1.93;;